createdAt,value
2019-03-22T00:01:18.306Z,126.77
2019-03-22T00:04:22.431Z,126.97
2019-03-22T00:07:26.616Z,125.83
2019-03-22T00:10:30.514Z,142.90
2019-03-22T00:13:34.437Z,141.27
2019-03-22T00:16:38.251Z,131.33
2019-03-22T00:19:42.150Z,108.37
2019-03-22T00:22:46.061Z,135.10
2019-03-22T00:25:49.940Z,150.80
2019-03-22T00:28:53.827Z,128.53
2019-03-22T00:31:57.760Z,120.07
2019-03-22T00:35:01.661Z,112.83
2019-03-22T00:38:05.736Z,120.77
2019-03-22T00:41:09.577Z,126.77
2019-03-22T00:44:13.488Z,129.37
2019-03-22T00:47:17.341Z,120.03
2019-03-22T00:50:21.267Z,133.63
2019-03-22T00:53:25.144Z,116.53
2019-03-22T00:56:29.044Z,132.67
2019-03-22T00:59:32.881Z,126.03
2019-03-22T01:02:37.025Z,137.80
2019-03-22T01:05:40.877Z,137.00
2019-03-22T01:08:44.806Z,138.87
2019-03-22T01:11:48.784Z,144.43
2019-03-22T01:14:52.696Z,130.40
2019-03-22T01:17:56.570Z,138.97
2019-03-22T01:21:00.462Z,136.20
2019-03-22T01:24:04.449Z,141.27
2019-03-22T01:27:08.481Z,151.70
2019-03-22T01:30:18.134Z,145.60
2019-03-22T01:33:22.032Z,143.87
2019-03-22T01:36:25.946Z,123.47
2019-03-22T01:39:29.805Z,140.77
2019-03-22T01:42:33.656Z,136.40
2019-03-22T01:45:37.561Z,135.87
2019-03-22T01:48:41.444Z,150.13
2019-03-22T01:51:45.349Z,142.03
2019-03-22T01:54:49.259Z,148.50
2019-03-22T01:57:54.099Z,159.63
2019-03-22T02:00:58.174Z,148.00
2019-03-22T02:04:02.040Z,137.83
2019-03-22T02:07:05.881Z,144.53
2019-03-22T02:10:11.886Z,160.73
2019-03-22T02:13:15.801Z,170.27
2019-03-22T02:16:19.729Z,182.83
2019-03-22T02:19:23.583Z,162.50
2019-03-22T02:22:27.417Z,165.17
2019-03-22T02:25:31.296Z,160.57
2019-03-22T02:28:35.181Z,174.77
2019-03-22T02:31:39.086Z,173.70
2019-03-22T02:34:42.967Z,165.43
2019-03-22T02:37:46.860Z,173.33
2019-03-22T02:40:50.743Z,179.80
2019-03-22T02:43:54.972Z,175.90
2019-03-22T02:46:59.210Z,170.77
2019-03-22T02:50:17.113Z,176.77
2019-03-22T02:53:08.700Z,186.40
2019-03-22T02:56:12.755Z,184.27
2019-03-22T02:59:16.743Z,159.53
2019-03-22T03:02:20.669Z,160.30
2019-03-22T03:05:24.507Z,174.80
2019-03-22T03:08:28.390Z,177.03
2019-03-22T03:11:32.221Z,168.97
2019-03-22T03:14:36.200Z,155.20
2019-03-22T03:17:40.132Z,155.90
2019-03-22T03:20:43.970Z,161.03
2019-03-22T03:23:49.466Z,168.23
2019-03-22T03:26:54.826Z,167.37
2019-03-22T03:29:58.749Z,168.70
2019-03-22T03:33:02.554Z,163.07
2019-03-22T03:36:06.433Z,170.50
2019-03-22T03:39:10.342Z,173.97
2019-03-22T03:42:14.173Z,175.50
2019-03-22T03:45:35.152Z,159.03
2019-03-22T03:48:39.022Z,195.47
2019-03-22T03:51:42.845Z,187.80
2019-03-22T03:54:46.730Z,175.23
2019-03-22T03:57:50.619Z,189.73
2019-03-22T04:00:54.451Z,193.63
2019-03-22T04:03:58.349Z,190.17
2019-03-22T04:07:02.399Z,159.73
2019-03-22T04:10:07.693Z,195.40
2019-03-22T04:13:11.544Z,194.77
2019-03-22T04:16:15.438Z,203.40
2019-03-22T04:19:19.676Z,196.73
2019-03-22T04:22:24.191Z,210.70
2019-03-22T04:25:28.108Z,220.93
2019-03-22T04:28:31.933Z,199.63
2019-03-22T04:31:35.873Z,215.30
2019-03-22T04:34:39.715Z,216.43
2019-03-22T04:37:43.592Z,223.27
2019-03-22T04:40:47.456Z,240.20
2019-03-22T04:43:51.328Z,228.07
2019-03-22T04:46:55.334Z,234.03
2019-03-22T04:49:59.242Z,242.03
2019-03-22T04:53:04.536Z,252.10
2019-03-22T04:56:11.313Z,230.30
2019-03-22T04:59:19.479Z,235.87
2019-03-22T05:02:23.762Z,226.27
2019-03-22T05:05:27.681Z,226.13
2019-03-22T05:08:33.477Z,227.03
2019-03-22T05:11:38.208Z,236.73
2019-03-22T05:14:43.207Z,236.73
2019-03-22T05:17:47.931Z,244.53
2019-03-22T05:20:53.155Z,252.20
2019-03-22T05:24:00.331Z,252.50
2019-03-22T05:27:06.223Z,261.83
2019-03-22T05:30:13.010Z,253.93
2019-03-22T05:33:16.935Z,239.93
2019-03-22T05:36:21.205Z,226.17
2019-03-22T05:39:26.047Z,217.70
2019-03-22T05:42:30.558Z,229.63
2019-03-22T05:45:34.405Z,228.57
2019-03-22T05:48:38.284Z,225.87
2019-03-22T05:51:42.191Z,225.40
2019-03-22T05:54:46.091Z,223.23
2019-03-22T05:57:49.999Z,212.80
2019-03-22T06:00:53.891Z,248.90
2019-03-22T06:03:57.932Z,241.33
2019-03-22T06:07:01.792Z,238.50
2019-03-22T06:10:06.706Z,238.03
2019-03-22T06:13:10.563Z,223.63
2019-03-22T06:16:14.430Z,222.93
2019-03-22T06:19:18.341Z,219.27
2019-03-22T06:22:22.235Z,216.83
2019-03-22T06:25:26.103Z,223.20
2019-03-22T06:28:29.984Z,219.83
2019-03-22T06:31:33.841Z,213.73
2019-03-22T06:34:37.760Z,209.23
2019-03-22T06:37:43.204Z,169.97
2019-03-22T06:40:47.093Z,180.83
2019-03-22T06:43:51.563Z,171.60
2019-03-22T06:46:55.399Z,165.83
2019-03-22T06:49:59.264Z,167.13
2019-03-22T06:53:03.157Z,184.80
2019-03-22T06:56:07.457Z,165.17
2019-03-22T06:59:11.345Z,165.73
2019-03-22T07:02:15.212Z,156.23
2019-03-22T07:05:19.136Z,146.93
2019-03-22T07:08:22.984Z,149.93
2019-03-22T07:11:28.399Z,153.40
2019-03-22T07:14:32.221Z,141.57
2019-03-22T07:17:36.123Z,136.90
2019-03-22T07:20:39.951Z,144.10
2019-03-22T07:23:43.870Z,140.30
2019-03-22T07:26:47.708Z,150.40
2019-03-22T07:29:51.603Z,153.40
2019-03-22T07:32:55.460Z,147.80
2019-03-22T07:35:59.297Z,142.13
2019-03-22T07:39:03.481Z,134.10
2019-03-22T07:42:07.309Z,118.07
2019-03-22T07:45:12.774Z,117.23
2019-03-22T07:48:16.682Z,119.90
2019-03-22T07:51:20.582Z,115.10
2019-03-22T07:54:24.462Z,113.33
2019-03-22T07:57:28.455Z,112.77
2019-03-22T08:00:32.265Z,105.13
2019-03-22T08:03:39.342Z,116.23
2019-03-22T08:06:43.175Z,113.07
2019-03-22T08:09:47.167Z,107.10
2019-03-22T08:12:51.326Z,111.83
2019-03-22T08:15:57.474Z,124.77
2019-03-22T08:19:00.718Z,125.53
2019-03-22T08:22:04.687Z,116.47
2019-03-22T08:25:08.581Z,126.93
2019-03-22T08:28:12.391Z,130.57
2019-03-22T08:31:16.305Z,126.30
2019-03-22T08:34:20.202Z,129.97
2019-03-22T08:37:24.883Z,110.80
2019-03-22T08:40:28.753Z,120.40
2019-03-22T08:43:32.903Z,124.17
2019-03-22T08:46:36.792Z,116.13
2019-03-22T08:49:40.887Z,108.17
2019-03-22T08:52:44.907Z,126.90
2019-03-22T08:55:48.776Z,121.00
2019-03-22T08:58:54.216Z,121.27
2019-03-22T09:01:58.142Z,115.53
2019-03-22T09:05:02.068Z,118.47
2019-03-22T09:08:06.053Z,110.23
2019-03-22T09:11:10.038Z,110.83
2019-03-22T09:14:13.916Z,112.10
2019-03-22T09:17:17.813Z,112.37
2019-03-22T09:20:21.685Z,103.40
2019-03-22T09:23:25.537Z,102.57
2019-03-22T09:26:29.471Z,102.67
2019-03-22T09:29:33.322Z,108.57
2019-03-22T09:32:37.281Z,104.20
2019-03-22T09:35:41.165Z,101.50
2019-03-22T09:38:45.162Z,109.10
2019-03-22T09:41:49.161Z,103.17
2019-03-22T09:44:53.034Z,105.63
2019-03-22T09:47:57.459Z,103.07
2019-03-22T09:51:01.340Z,100.33
2019-03-22T09:54:05.302Z,107.77
2019-03-22T09:57:09.136Z,104.73
2019-03-22T10:00:30.331Z,100.07
2019-03-22T10:03:34.309Z,95.37
2019-03-22T10:06:38.259Z,97.63
2019-03-22T10:09:42.168Z,89.93
2019-03-22T10:12:45.987Z,89.77
2019-03-22T10:15:49.969Z,92.77
2019-03-22T10:18:54.133Z,87.77
2019-03-22T10:21:58.013Z,80.43
2019-03-22T10:25:02.006Z,70.93
2019-03-22T10:28:05.926Z,69.57
2019-03-22T10:31:09.987Z,75.23
2019-03-22T10:34:13.859Z,77.30
2019-03-22T10:37:17.822Z,76.83
2019-03-22T10:40:21.671Z,72.03
2019-03-22T10:43:25.570Z,85.90
2019-03-22T10:46:29.472Z,83.80
2019-03-22T10:49:33.338Z,87.37
2019-03-22T10:52:37.274Z,81.00
2019-03-22T10:55:41.102Z,85.47
2019-03-22T10:58:45.203Z,83.13
2019-03-22T11:02:02.724Z,84.33
2019-03-22T11:04:56.841Z,77.83
2019-03-22T11:08:00.785Z,79.20
2019-03-22T11:11:04.637Z,77.30
2019-03-22T11:14:08.533Z,78.20
2019-03-22T11:17:12.385Z,84.50
2019-03-22T11:20:17.381Z,84.33
2019-03-22T11:23:21.247Z,93.77
2019-03-22T11:26:25.224Z,93.47
2019-03-22T11:29:29.121Z,96.30
2019-03-22T11:32:33.504Z,97.40
2019-03-22T11:35:37.663Z,87.80
2019-03-22T11:38:41.516Z,93.07
2019-03-22T11:41:45.421Z,89.27
2019-03-22T11:44:49.282Z,95.10
2019-03-22T11:47:53.300Z,101.13
2019-03-22T11:50:57.162Z,98.20
2019-03-22T11:54:01.042Z,95.83
2019-03-22T11:57:05.371Z,97.17
2019-03-22T12:00:12.397Z,98.73
2019-03-22T12:03:16.246Z,90.67
2019-03-22T12:06:20.136Z,96.97
2019-03-22T12:09:23.979Z,87.90
2019-03-22T12:12:27.874Z,88.00
2019-03-22T12:15:31.715Z,83.23
2019-03-22T12:18:35.619Z,88.00
2019-03-22T12:21:39.512Z,88.83
2019-03-22T12:24:43.426Z,79.63
2019-03-22T12:27:48.447Z,72.60
2019-03-22T12:30:52.546Z,67.23
2019-03-22T12:33:56.377Z,61.73
2019-03-22T12:37:00.445Z,60.37
2019-03-22T12:40:13.191Z,65.27
2019-03-22T12:43:17.125Z,60.17
2019-03-22T12:46:22.222Z,58.63
2019-03-22T12:49:26.123Z,67.83
2019-03-22T12:52:31.361Z,59.90
2019-03-22T12:55:35.527Z,52.87
2019-03-22T12:58:39.400Z,58.43
2019-03-22T13:01:43.251Z,61.43
2019-03-22T13:04:47.150Z,55.40
2019-03-22T13:07:51.091Z,66.33
2019-03-22T13:10:54.971Z,77.20
2019-03-22T13:13:58.987Z,69.47
2019-03-22T13:17:02.803Z,71.87
2019-03-22T13:20:14.363Z,85.37
2019-03-22T13:23:18.275Z,80.23
2019-03-22T13:26:22.533Z,78.60
2019-03-22T13:29:26.446Z,77.00
2019-03-22T13:32:30.547Z,79.07
2019-03-22T13:35:34.424Z,81.33
2019-03-22T13:38:38.928Z,78.13
2019-03-22T13:41:42.791Z,77.67
2019-03-22T13:44:46.670Z,71.40
2019-03-22T13:47:50.567Z,67.63
2019-03-22T13:50:54.442Z,66.90
2019-03-22T13:53:58.334Z,62.00
2019-03-22T13:57:02.197Z,70.90
2019-03-22T14:00:11.487Z,71.43
2019-03-22T14:03:16.764Z,71.20
2019-03-22T14:06:20.627Z,71.10
2019-03-22T14:09:24.530Z,69.53
2019-03-22T14:12:36.798Z,67.40
2019-03-22T14:15:34.053Z,67.93
2019-03-22T14:18:38.319Z,70.07
2019-03-22T14:21:42.186Z,57.90
2019-03-22T14:24:46.025Z,67.27
2019-03-22T14:27:49.889Z,56.07
2019-03-22T14:30:53.787Z,59.47
2019-03-22T14:33:57.646Z,59.97
2019-03-22T14:37:01.530Z,58.67
2019-03-22T14:40:07.453Z,63.23
2019-03-22T14:43:11.361Z,67.60
2019-03-22T14:46:15.340Z,82.13
2019-03-22T14:49:19.144Z,84.80
2019-03-22T14:52:23.694Z,81.37
2019-03-22T14:55:27.583Z,96.97
2019-03-22T14:58:31.381Z,137.57
2019-03-22T15:01:35.296Z,111.93
2019-03-22T15:04:39.165Z,91.87
2019-03-22T15:07:43.075Z,83.70
2019-03-22T15:10:46.902Z,91.97
2019-03-22T15:14:03.002Z,87.60
2019-03-22T15:17:25.035Z,94.73
2019-03-22T15:20:47.239Z,92.53
2019-03-22T15:24:02.998Z,125.40
2019-03-22T15:27:09.056Z,110.50
2019-03-22T15:30:14.907Z,101.83
2019-03-22T15:33:34.181Z,100.93
2019-03-22T15:36:48.406Z,86.63
2019-03-22T15:40:00.652Z,93.77
2019-03-22T15:43:04.528Z,88.23
2019-03-22T15:46:08.428Z,100.47
2019-03-22T15:49:12.341Z,91.17
2019-03-22T15:52:16.202Z,112.87
2019-03-22T15:55:20.110Z,105.40
2019-03-22T15:58:23.954Z,117.00
2019-03-22T16:01:28.106Z,266.80
2019-03-22T16:04:31.978Z,141.90
2019-03-22T16:07:35.941Z,147.70
2019-03-22T16:10:39.811Z,133.60
2019-03-22T16:13:43.728Z,141.57
2019-03-22T16:16:48.729Z,110.47
2019-03-22T16:19:52.677Z,95.37
2019-03-22T16:22:56.631Z,90.30
2019-03-22T16:26:00.514Z,85.63
2019-03-22T16:29:04.383Z,88.63
2019-03-22T16:32:08.272Z,87.10
2019-03-22T16:35:12.110Z,87.83
2019-03-22T16:38:16.014Z,83.97
2019-03-22T16:41:19.908Z,86.57
2019-03-22T16:44:23.777Z,82.93
2019-03-22T16:47:27.677Z,84.10
2019-03-22T16:50:33.707Z,85.43
2019-03-22T16:53:37.553Z,90.87
2019-03-22T16:56:41.474Z,93.17
2019-03-22T16:59:45.311Z,86.13
2019-03-22T17:02:49.169Z,87.50
2019-03-22T17:05:53.073Z,85.23
2019-03-22T17:08:56.982Z,88.50
2019-03-22T17:12:02.201Z,88.50
2019-03-22T17:15:08.088Z,99.87
2019-03-22T17:18:11.942Z,105.97
2019-03-22T17:21:16.066Z,111.73
2019-03-22T17:24:19.926Z,103.00
2019-03-22T17:27:24.530Z,101.27
2019-03-22T17:30:28.787Z,89.63
2019-03-22T17:33:32.711Z,95.50
2019-03-22T17:36:36.607Z,88.27
2019-03-22T17:39:40.524Z,106.63
2019-03-22T17:42:44.364Z,129.77
2019-03-22T17:45:48.247Z,130.43
2019-03-22T17:48:52.103Z,122.70
2019-03-22T17:51:56.018Z,116.37
2019-03-22T17:54:59.841Z,114.53
2019-03-22T18:01:41.042Z,96.40
2019-03-22T18:04:44.965Z,108.40
2019-03-22T18:07:48.903Z,96.83
2019-03-22T18:10:52.741Z,100.10
2019-03-22T18:13:56.693Z,93.80
2019-03-22T18:17:00.523Z,111.83
2019-03-22T18:20:07.308Z,128.80
2019-03-22T18:23:11.156Z,125.47
2019-03-22T18:26:15.036Z,115.83
2019-03-22T18:29:18.947Z,109.33
2019-03-22T18:32:23.739Z,114.67
2019-03-22T18:35:27.728Z,106.17
2019-03-22T18:38:31.582Z,110.77
2019-03-22T18:41:35.491Z,110.00
2019-03-22T18:44:39.337Z,122.57
2019-03-22T18:47:43.866Z,124.13
2019-03-22T18:50:56.285Z,122.60
2019-03-22T18:53:53.302Z,119.30
2019-03-22T18:56:57.215Z,115.83
2019-03-22T19:00:01.088Z,107.10
2019-03-22T19:03:05.052Z,101.40
2019-03-22T19:06:08.932Z,98.17
2019-03-22T19:09:12.801Z,115.33
2019-03-22T19:12:16.677Z,94.97
2019-03-22T19:15:20.586Z,88.63
2019-03-22T19:18:24.484Z,105.00
2019-03-22T19:21:28.364Z,86.87
2019-03-22T19:24:32.346Z,109.77
2019-03-22T19:27:36.206Z,112.80
2019-03-22T19:30:40.103Z,124.67
2019-03-22T19:33:43.971Z,135.20
2019-03-22T19:36:47.848Z,128.13
2019-03-22T19:39:51.741Z,134.07
2019-03-22T19:42:55.762Z,125.73
2019-03-22T19:45:59.730Z,117.23
2019-03-22T19:49:03.581Z,107.73
2019-03-22T19:52:07.476Z,118.90
2019-03-22T19:55:11.610Z,115.67
2019-03-22T19:58:17.078Z,116.47
2019-03-22T20:01:20.951Z,130.30
2019-03-22T20:04:24.885Z,129.43
2019-03-22T20:07:29.022Z,138.20
2019-03-22T20:10:32.946Z,155.13
2019-03-22T20:13:36.946Z,159.07
2019-03-22T20:16:40.814Z,173.10
2019-03-22T20:19:44.877Z,168.07
2019-03-22T20:22:49.188Z,169.33
2019-03-22T20:25:53.033Z,155.77
2019-03-22T20:28:56.936Z,161.07
2019-03-22T20:32:00.842Z,159.20
2019-03-22T20:35:15.842Z,160.03
2019-03-22T20:38:13.092Z,157.87
2019-03-22T20:41:16.967Z,171.47
2019-03-22T20:44:20.841Z,154.30
2019-03-22T20:47:25.306Z,165.77
2019-03-22T20:50:35.736Z,185.90
2019-03-22T20:53:35.006Z,163.93
2019-03-22T20:56:38.844Z,165.63
2019-03-22T20:59:42.681Z,167.73
2019-03-22T21:02:46.639Z,163.63
2019-03-22T21:05:50.511Z,159.10
2019-03-22T21:08:54.366Z,147.97
2019-03-22T21:11:58.239Z,146.77
2019-03-22T21:15:02.094Z,137.33
2019-03-22T21:18:05.923Z,137.23
2019-03-22T21:21:09.962Z,152.83
2019-03-22T21:24:14.119Z,141.10
2019-03-22T21:27:17.988Z,142.43
2019-03-22T21:30:22.602Z,133.70
2019-03-22T21:33:26.538Z,143.07
2019-03-22T21:36:30.422Z,143.37
2019-03-22T21:39:34.284Z,128.63
2019-03-22T21:42:38.143Z,137.47
2019-03-22T21:45:42.225Z,215.83
2019-03-22T21:48:46.082Z,203.40
2019-03-22T21:51:49.941Z,190.33
2019-03-22T21:54:53.861Z,166.20
2019-03-22T21:57:57.717Z,165.50
2019-03-22T22:01:01.584Z,151.43
2019-03-22T22:04:05.424Z,152.13
2019-03-22T22:07:09.526Z,147.20
2019-03-22T22:10:13.388Z,143.77
2019-03-22T22:13:17.236Z,142.17
2019-03-22T22:16:21.101Z,140.10
2019-03-22T22:19:24.981Z,127.53
2019-03-22T22:22:28.848Z,124.47
2019-03-22T22:25:32.702Z,126.33
2019-03-22T22:28:36.575Z,141.60
2019-03-22T22:31:40.427Z,134.47
2019-03-22T22:34:44.303Z,117.80
2019-03-22T22:37:48.118Z,118.77
2019-03-22T22:40:51.999Z,118.57
2019-03-22T22:43:55.887Z,117.37
2019-03-22T22:46:59.736Z,129.30
2019-03-22T22:50:04.615Z,151.90
2019-03-22T22:53:08.426Z,133.03
2019-03-22T22:56:12.356Z,150.97
2019-03-22T22:59:16.264Z,129.67
2019-03-22T23:02:20.119Z,123.63
2019-03-22T23:05:23.982Z,121.60
2019-03-22T23:08:27.844Z,123.73
2019-03-22T23:11:31.693Z,123.43
2019-03-22T23:14:35.562Z,127.23
2019-03-22T23:17:39.467Z,138.80
2019-03-22T23:20:43.313Z,147.23
2019-03-22T23:23:47.185Z,161.30
2019-03-22T23:26:51.062Z,144.87
2019-03-22T23:29:54.922Z,118.97
2019-03-22T23:32:58.784Z,133.93
2019-03-22T23:36:02.637Z,144.37
2019-03-22T23:39:07.804Z,139.93
2019-03-22T23:42:11.805Z,133.70
2019-03-22T23:45:15.687Z,133.23
2019-03-22T23:48:19.524Z,143.07
2019-03-22T23:51:23.383Z,151.00
2019-03-22T23:54:27.221Z,143.53
2019-03-22T23:57:31.126Z,124.60
